sensor_id;sensor_type;location;lat;lon;timestamp;temperature;humidity
17632;DHT22;8934;51.194;17.150;2023-05-18T00:01:32;7.90;99.90
17632;DHT22;8934;51.194;17.150;2023-05-18T00:04:19;7.90;99.90
17632;DHT22;8934;51.194;17.150;2023-05-18T00:07:09;7.90;99.90
17632;DHT22;8934;51.194;17.150;2023-05-18T00:09:56;7.90;99.90
17632;DHT22;8934;51.194;17.150;2023-05-18T00:12:44;7.80;99.90
17632;DHT22;8934;51.194;17.150;2023-05-18T00:15:32;7.80;99.90
17632;DHT22;8934;51.194;17.150;2023-05-18T00:18:22;7.80;99.90
17632;DHT22;8934;51.194;17.150;2023-05-18T00:21:12;7.80;99.90
17632;DHT22;8934;51.194;17.150;2023-05-18T00:24:01;7.70;99.90
17632;DHT22;8934;51.194;17.150;2023-05-18T00:26:49;7.70;99.90
17632;DHT22;8934;51.194;17.150;2023-05-18T00:29:36;7.70;99.90
17632;DHT22;8934;51.194;17.150;2023-05-18T00:32:24;7.60;99.90
17632;DHT22;8934;51.194;17.150;2023-05-18T00:35:13;7.50;99.90
17632;DHT22;8934;51.194;17.150;2023-05-18T00:38:01;7.50;99.90
17632;DHT22;8934;51.194;17.150;2023-05-18T00:40:49;7.50;99.90
17632;DHT22;8934;51.194;17.150;2023-05-18T00:43:39;7.40;99.90
17632;DHT22;8934;51.194;17.150;2023-05-18T00:46:27;7.30;99.90
17632;DHT22;8934;51.194;17.150;2023-05-18T00:49:15;7.30;99.90
17632;DHT22;8934;51.194;17.150;2023-05-18T00:52:05;7.20;99.90
17632;DHT22;8934;51.194;17.150;2023-05-18T00:54:53;7.10;99.90
17632;DHT22;8934;51.194;17.150;2023-05-18T00:57:41;7.00;99.90
17632;DHT22;8934;51.194;17.150;2023-05-18T01:00:31;6.90;99.90
17632;DHT22;8934;51.194;17.150;2023-05-18T01:03:23;6.90;99.90
17632;DHT22;8934;51.194;17.150;2023-05-18T01:06:11;6.80;99.90
17632;DHT22;8934;51.194;17.150;2023-05-18T01:09:03;6.70;99.90
17632;DHT22;8934;51.194;17.150;2023-05-18T01:11:58;6.70;99.90
17632;DHT22;8934;51.194;17.150;2023-05-18T01:14:50;6.60;99.90
17632;DHT22;8934;51.194;17.150;2023-05-18T01:17:45;6.60;99.90
17632;DHT22;8934;51.194;17.150;2023-05-18T01:20:38;6.50;99.90
17632;DHT22;8934;51.194;17.150;2023-05-18T01:24:02;6.50;99.90
17632;DHT22;8934;51.194;17.150;2023-05-18T01:26:54;6.40;99.90
17632;DHT22;8934;51.194;17.150;2023-05-18T01:29:45;6.40;99.90
17632;DHT22;8934;51.194;17.150;2023-05-18T01:32:38;6.40;99.90
17632;DHT22;8934;51.194;17.150;2023-05-18T01:35:27;6.40;99.90
17632;DHT22;8934;51.194;17.150;2023-05-18T01:38:18;6.40;99.90
17632;DHT22;8934;51.194;17.150;2023-05-18T01:41:11;6.40;99.90
17632;DHT22;8934;51.194;17.150;2023-05-18T01:44:06;6.40;99.90
17632;DHT22;8934;51.194;17.150;2023-05-18T01:46:59;6.40;99.90
17632;DHT22;8934;51.194;17.150;2023-05-18T01:49:53;6.40;99.90
17632;DHT22;8934;51.194;17.150;2023-05-18T01:52:45;6.40;99.90
17632;DHT22;8934;51.194;17.150;2023-05-18T01:55:35;6.40;99.90
17632;DHT22;8934;51.194;17.150;2023-05-18T01:58:25;6.40;99.90
17632;DHT22;8934;51.194;17.150;2023-05-18T02:01:15;6.50;99.90
17632;DHT22;8934;51.194;17.150;2023-05-18T02:04:07;6.40;99.90
17632;DHT22;8934;51.194;17.150;2023-05-18T02:06:56;6.40;99.90
17632;DHT22;8934;51.194;17.150;2023-05-18T02:09:43;6.40;99.90
17632;DHT22;8934;51.194;17.150;2023-05-18T02:12:31;6.40;99.90
17632;DHT22;8934;51.194;17.150;2023-05-18T02:15:20;6.40;99.90
17632;DHT22;8934;51.194;17.150;2023-05-18T02:18:09;6.40;99.90
17632;DHT22;8934;51.194;17.150;2023-05-18T02:20:57;6.40;99.90
17632;DHT22;8934;51.194;17.150;2023-05-18T02:23:45;6.40;99.90
17632;DHT22;8934;51.194;17.150;2023-05-18T02:26:33;6.40;99.90
17632;DHT22;8934;51.194;17.150;2023-05-18T02:29:22;6.40;99.90
17632;DHT22;8934;51.194;17.150;2023-05-18T02:32:10;6.40;99.90
17632;DHT22;8934;51.194;17.150;2023-05-18T02:34:59;6.40;99.90
17632;DHT22;8934;51.194;17.150;2023-05-18T02:37:47;6.40;99.90
17632;DHT22;8934;51.194;17.150;2023-05-18T02:40:35;6.40;99.90
17632;DHT22;8934;51.194;17.150;2023-05-18T02:43:22;6.40;99.90
17632;DHT22;8934;51.194;17.150;2023-05-18T02:46:10;6.40;99.90
17632;DHT22;8934;51.194;17.150;2023-05-18T02:48:58;6.40;99.90
17632;DHT22;8934;51.194;17.150;2023-05-18T02:51:47;6.40;99.90
17632;DHT22;8934;51.194;17.150;2023-05-18T02:54:37;6.40;99.90
17632;DHT22;8934;51.194;17.150;2023-05-18T02:57:32;6.40;99.90
17632;DHT22;8934;51.194;17.150;2023-05-18T03:00:25;6.40;99.90
17632;DHT22;8934;51.194;17.150;2023-05-18T03:03:15;6.40;99.90
17632;DHT22;8934;51.194;17.150;2023-05-18T03:06:05;6.30;99.90
17632;DHT22;8934;51.194;17.150;2023-05-18T03:08:55;6.30;99.90
17632;DHT22;8934;51.194;17.150;2023-05-18T03:11:51;6.30;99.90
17632;DHT22;8934;51.194;17.150;2023-05-18T03:14:39;6.30;99.90
17632;DHT22;8934;51.194;17.150;2023-05-18T03:17:27;6.30;99.90
17632;DHT22;8934;51.194;17.150;2023-05-18T03:20:15;6.30;99.90
17632;DHT22;8934;51.194;17.150;2023-05-18T03:23:03;6.30;99.90
17632;DHT22;8934;51.194;17.150;2023-05-18T03:25:54;6.30;99.90
17632;DHT22;8934;51.194;17.150;2023-05-18T03:28:45;6.30;99.90
17632;DHT22;8934;51.194;17.150;2023-05-18T03:31:34;6.30;99.90
17632;DHT22;8934;51.194;17.150;2023-05-18T03:34:22;6.30;99.90
17632;DHT22;8934;51.194;17.150;2023-05-18T03:37:11;6.40;99.90
17632;DHT22;8934;51.194;17.150;2023-05-18T03:40:06;6.40;99.90
17632;DHT22;8934;51.194;17.150;2023-05-18T03:42:57;6.40;99.90
17632;DHT22;8934;51.194;17.150;2023-05-18T03:45:45;6.40;99.90
17632;DHT22;8934;51.194;17.150;2023-05-18T03:48:32;6.50;99.90
17632;DHT22;8934;51.194;17.150;2023-05-18T03:51:20;6.50;99.90
17632;DHT22;8934;51.194;17.150;2023-05-18T03:54:09;6.60;99.90
17632;DHT22;8934;51.194;17.150;2023-05-18T03:56:56;6.60;99.90
17632;DHT22;8934;51.194;17.150;2023-05-18T03:59:45;6.60;99.90
17632;DHT22;8934;51.194;17.150;2023-05-18T04:02:33;6.70;99.90
17632;DHT22;8934;51.194;17.150;2023-05-18T04:05:22;6.70;99.90
17632;DHT22;8934;51.194;17.150;2023-05-18T04:08:09;6.80;99.90
17632;DHT22;8934;51.194;17.150;2023-05-18T04:10:59;6.90;99.90
17632;DHT22;8934;51.194;17.150;2023-05-18T04:13:47;7.00;99.90
17632;DHT22;8934;51.194;17.150;2023-05-18T04:16:37;7.00;99.90
17632;DHT22;8934;51.194;17.150;2023-05-18T04:19:26;7.10;99.90
17632;DHT22;8934;51.194;17.150;2023-05-18T04:22:15;7.20;99.90
17632;DHT22;8934;51.194;17.150;2023-05-18T04:25:04;7.20;99.90
17632;DHT22;8934;51.194;17.150;2023-05-18T04:27:52;7.20;99.90
17632;DHT22;8934;51.194;17.150;2023-05-18T04:30:41;7.30;99.90
17632;DHT22;8934;51.194;17.150;2023-05-18T04:33:30;7.30;99.90
17632;DHT22;8934;51.194;17.150;2023-05-18T04:36:19;7.30;99.90
17632;DHT22;8934;51.194;17.150;2023-05-18T04:39:11;7.30;99.90
17632;DHT22;8934;51.194;17.150;2023-05-18T04:41:59;7.40;99.90
17632;DHT22;8934;51.194;17.150;2023-05-18T04:44:47;7.40;99.90
17632;DHT22;8934;51.194;17.150;2023-05-18T04:47:37;7.50;99.90
17632;DHT22;8934;51.194;17.150;2023-05-18T04:50:26;7.60;99.90
17632;DHT22;8934;51.194;17.150;2023-05-18T04:53:15;7.60;99.90
17632;DHT22;8934;51.194;17.150;2023-05-18T04:56:04;7.70;99.90
17632;DHT22;8934;51.194;17.150;2023-05-18T04:58:51;7.80;99.90
17632;DHT22;8934;51.194;17.150;2023-05-18T05:01:47;7.80;99.90
17632;DHT22;8934;51.194;17.150;2023-05-18T05:04:35;7.80;99.90
17632;DHT22;8934;51.194;17.150;2023-05-18T05:07:24;7.80;99.90
17632;DHT22;8934;51.194;17.150;2023-05-18T05:10:12;7.90;99.90
17632;DHT22;8934;51.194;17.150;2023-05-18T05:12:59;7.90;99.90
17632;DHT22;8934;51.194;17.150;2023-05-18T05:15:47;8.00;99.90
17632;DHT22;8934;51.194;17.150;2023-05-18T05:18:35;8.10;99.90
17632;DHT22;8934;51.194;17.150;2023-05-18T05:21:23;8.20;99.90
17632;DHT22;8934;51.194;17.150;2023-05-18T05:24:12;8.20;99.90
17632;DHT22;8934;51.194;17.150;2023-05-18T05:27:00;8.30;99.90
17632;DHT22;8934;51.194;17.150;2023-05-18T05:29:48;8.40;99.90
17632;DHT22;8934;51.194;17.150;2023-05-18T05:32:36;8.50;99.90
17632;DHT22;8934;51.194;17.150;2023-05-18T05:35:24;8.50;99.90
17632;DHT22;8934;51.194;17.150;2023-05-18T05:38:13;8.60;99.90
17632;DHT22;8934;51.194;17.150;2023-05-18T05:41:02;8.60;99.90
17632;DHT22;8934;51.194;17.150;2023-05-18T05:43:50;8.70;99.90
17632;DHT22;8934;51.194;17.150;2023-05-18T05:46:38;8.80;99.90
17632;DHT22;8934;51.194;17.150;2023-05-18T05:49:27;8.90;99.90
17632;DHT22;8934;51.194;17.150;2023-05-18T05:52:15;9.00;99.90
17632;DHT22;8934;51.194;17.150;2023-05-18T05:55:04;9.20;99.90
17632;DHT22;8934;51.194;17.150;2023-05-18T05:57:53;9.30;99.90
17632;DHT22;8934;51.194;17.150;2023-05-18T06:00:41;9.50;99.90
17632;DHT22;8934;51.194;17.150;2023-05-18T06:03:29;9.60;99.90
17632;DHT22;8934;51.194;17.150;2023-05-18T06:06:23;9.80;99.90
17632;DHT22;8934;51.194;17.150;2023-05-18T06:09:11;9.90;99.90
17632;DHT22;8934;51.194;17.150;2023-05-18T06:11:59;10.00;99.90
17632;DHT22;8934;51.194;17.150;2023-05-18T06:14:48;10.00;99.90
17632;DHT22;8934;51.194;17.150;2023-05-18T06:17:38;10.20;99.90
17632;DHT22;8934;51.194;17.150;2023-05-18T06:20:26;10.40;99.90
17632;DHT22;8934;51.194;17.150;2023-05-18T06:23:14;10.60;99.90
17632;DHT22;8934;51.194;17.150;2023-05-18T06:26:27;10.60;99.90
17632;DHT22;8934;51.194;17.150;2023-05-18T06:29:34;10.60;99.90
17632;DHT22;8934;51.194;17.150;2023-05-18T06:32:46;10.50;99.90
17632;DHT22;8934;51.194;17.150;2023-05-18T06:35:34;10.60;99.90
17632;DHT22;8934;51.194;17.150;2023-05-18T06:38:22;10.80;99.90
17632;DHT22;8934;51.194;17.150;2023-05-18T06:41:09;10.90;99.90
17632;DHT22;8934;51.194;17.150;2023-05-18T06:43:57;11.00;99.90
17632;DHT22;8934;51.194;17.150;2023-05-18T06:46:57;11.20;99.90
17632;DHT22;8934;51.194;17.150;2023-05-18T06:49:48;11.30;99.90
17632;DHT22;8934;51.194;17.150;2023-05-18T06:52:36;11.30;99.90
17632;DHT22;8934;51.194;17.150;2023-05-18T06:55:24;11.40;99.90
17632;DHT22;8934;51.194;17.150;2023-05-18T06:58:12;11.40;99.90
17632;DHT22;8934;51.194;17.150;2023-05-18T07:01:00;11.30;99.90
17632;DHT22;8934;51.194;17.150;2023-05-18T07:03:48;11.30;99.90
17632;DHT22;8934;51.194;17.150;2023-05-18T07:06:37;11.30;99.90
17632;DHT22;8934;51.194;17.150;2023-05-18T07:09:25;11.40;99.90
17632;DHT22;8934;51.194;17.150;2023-05-18T07:12:12;11.60;99.90
17632;DHT22;8934;51.194;17.150;2023-05-18T07:15:00;11.80;99.90
17632;DHT22;8934;51.194;17.150;2023-05-18T07:17:49;12.00;99.90
17632;DHT22;8934;51.194;17.150;2023-05-18T07:20:37;12.20;99.90
17632;DHT22;8934;51.194;17.150;2023-05-18T07:23:26;12.40;99.90
17632;DHT22;8934;51.194;17.150;2023-05-18T07:26:14;12.50;99.90
17632;DHT22;8934;51.194;17.150;2023-05-18T07:29:01;12.80;99.90
17632;DHT22;8934;51.194;17.150;2023-05-18T07:31:49;13.00;99.90
17632;DHT22;8934;51.194;17.150;2023-05-18T07:34:36;12.80;99.90
17632;DHT22;8934;51.194;17.150;2023-05-18T07:37:24;12.70;99.90
17632;DHT22;8934;51.194;17.150;2023-05-18T07:40:13;12.60;99.90
17632;DHT22;8934;51.194;17.150;2023-05-18T07:43:00;12.60;99.90
17632;DHT22;8934;51.194;17.150;2023-05-18T07:45:48;12.50;99.90
17632;DHT22;8934;51.194;17.150;2023-05-18T07:48:35;12.80;99.90
17632;DHT22;8934;51.194;17.150;2023-05-18T07:51:26;12.80;99.90
17632;DHT22;8934;51.194;17.150;2023-05-18T07:54:15;12.90;99.90
17632;DHT22;8934;51.194;17.150;2023-05-18T07:57:04;12.90;99.90
17632;DHT22;8934;51.194;17.150;2023-05-18T07:59:51;13.00;99.90
17632;DHT22;8934;51.194;17.150;2023-05-18T08:02:39;13.10;99.90
17632;DHT22;8934;51.194;17.150;2023-05-18T08:05:27;13.20;99.90
17632;DHT22;8934;51.194;17.150;2023-05-18T08:08:15;13.30;99.90
17632;DHT22;8934;51.194;17.150;2023-05-18T08:11:04;13.40;99.90
17632;DHT22;8934;51.194;17.150;2023-05-18T08:13:53;13.60;99.90
17632;DHT22;8934;51.194;17.150;2023-05-18T08:16:41;13.80;99.90
17632;DHT22;8934;51.194;17.150;2023-05-18T08:19:28;13.80;99.90
17632;DHT22;8934;51.194;17.150;2023-05-18T08:22:16;13.70;99.90
17632;DHT22;8934;51.194;17.150;2023-05-18T08:25:04;13.80;99.90
17632;DHT22;8934;51.194;17.150;2023-05-18T08:27:52;14.00;99.90
17632;DHT22;8934;51.194;17.150;2023-05-18T08:30:41;14.30;99.90
17632;DHT22;8934;51.194;17.150;2023-05-18T08:33:29;14.50;99.90
17632;DHT22;8934;51.194;17.150;2023-05-18T08:36:18;14.70;99.90
17632;DHT22;8934;51.194;17.150;2023-05-18T08:39:05;14.70;99.90
17632;DHT22;8934;51.194;17.150;2023-05-18T08:41:56;14.50;99.90
17632;DHT22;8934;51.194;17.150;2023-05-18T08:44:52;14.60;99.90
17632;DHT22;8934;51.194;17.150;2023-05-18T08:47:45;14.70;99.90
17632;DHT22;8934;51.194;17.150;2023-05-18T08:50:35;14.80;99.90
17632;DHT22;8934;51.194;17.150;2023-05-18T08:53:24;14.90;99.90
17632;DHT22;8934;51.194;17.150;2023-05-18T08:56:13;15.10;99.90
17632;DHT22;8934;51.194;17.150;2023-05-18T08:59:03;15.60;99.90
17632;DHT22;8934;51.194;17.150;2023-05-18T09:01:53;16.20;99.90
17632;DHT22;8934;51.194;17.150;2023-05-18T09:04:42;16.50;99.90
17632;DHT22;8934;51.194;17.150;2023-05-18T09:07:31;16.20;99.90
17632;DHT22;8934;51.194;17.150;2023-05-18T09:10:19;15.70;99.90
17632;DHT22;8934;51.194;17.150;2023-05-18T09:13:09;15.60;99.90
17632;DHT22;8934;51.194;17.150;2023-05-18T09:15:57;15.60;99.90
17632;DHT22;8934;51.194;17.150;2023-05-18T09:18:45;15.70;99.90
17632;DHT22;8934;51.194;17.150;2023-05-18T09:21:34;15.50;99.90
17632;DHT22;8934;51.194;17.150;2023-05-18T09:24:22;15.60;99.90
17632;DHT22;8934;51.194;17.150;2023-05-18T09:27:10;15.70;99.90
17632;DHT22;8934;51.194;17.150;2023-05-18T09:29:58;16.20;99.90
17632;DHT22;8934;51.194;17.150;2023-05-18T09:32:46;16.30;99.90
17632;DHT22;8934;51.194;17.150;2023-05-18T09:35:34;16.60;99.90
17632;DHT22;8934;51.194;17.150;2023-05-18T09:38:24;16.90;99.90
17632;DHT22;8934;51.194;17.150;2023-05-18T09:41:15;17.20;99.90
17632;DHT22;8934;51.194;17.150;2023-05-18T09:44:03;17.00;99.90
17632;DHT22;8934;51.194;17.150;2023-05-18T09:46:55;17.30;99.90
17632;DHT22;8934;51.194;17.150;2023-05-18T09:49:43;17.10;99.90
17632;DHT22;8934;51.194;17.150;2023-05-18T09:52:30;16.80;99.90
17632;DHT22;8934;51.194;17.150;2023-05-18T09:55:28;17.00;99.90
17632;DHT22;8934;51.194;17.150;2023-05-18T09:58:16;17.20;99.90
17632;DHT22;8934;51.194;17.150;2023-05-18T10:01:04;16.90;99.90
17632;DHT22;8934;51.194;17.150;2023-05-18T10:03:51;16.40;99.90
17632;DHT22;8934;51.194;17.150;2023-05-18T10:06:47;16.40;99.90
17632;DHT22;8934;51.194;17.150;2023-05-18T10:09:35;16.90;99.90
17632;DHT22;8934;51.194;17.150;2023-05-18T10:12:24;17.40;99.90
17632;DHT22;8934;51.194;17.150;2023-05-18T10:15:13;17.70;99.90
17632;DHT22;8934;51.194;17.150;2023-05-18T10:18:02;18.30;99.90
17632;DHT22;8934;51.194;17.150;2023-05-18T10:20:55;18.30;99.90
17632;DHT22;8934;51.194;17.150;2023-05-18T10:23:46;17.90;99.90
17632;DHT22;8934;51.194;17.150;2023-05-18T10:26:37;18.00;99.90
17632;DHT22;8934;51.194;17.150;2023-05-18T10:29:27;18.40;99.90
17632;DHT22;8934;51.194;17.150;2023-05-18T10:32:16;18.30;99.90
17632;DHT22;8934;51.194;17.150;2023-05-18T10:35:07;18.10;99.90
17632;DHT22;8934;51.194;17.150;2023-05-18T10:37:59;18.20;99.90
17632;DHT22;8934;51.194;17.150;2023-05-18T10:40:50;18.40;99.90
17632;DHT22;8934;51.194;17.150;2023-05-18T10:43:40;18.80;99.90
17632;DHT22;8934;51.194;17.150;2023-05-18T10:46:29;19.40;99.90
17632;DHT22;8934;51.194;17.150;2023-05-18T10:49:18;19.50;99.70
17632;DHT22;8934;51.194;17.150;2023-05-18T10:52:10;19.20;99.90
17632;DHT22;8934;51.194;17.150;2023-05-18T10:54:59;19.20;99.90
17632;DHT22;8934;51.194;17.150;2023-05-18T10:57:50;18.60;99.60
17632;DHT22;8934;51.194;17.150;2023-05-18T11:00:40;18.20;99.90
17632;DHT22;8934;51.194;17.150;2023-05-18T11:03:31;17.70;99.90
17632;DHT22;8934;51.194;17.150;2023-05-18T11:06:23;17.30;99.90
17632;DHT22;8934;51.194;17.150;2023-05-18T11:09:21;17.00;99.40
17632;DHT22;8934;51.194;17.150;2023-05-18T11:12:13;16.90;99.90
17632;DHT22;8934;51.194;17.150;2023-05-18T11:15:04;17.20;99.90
17632;DHT22;8934;51.194;17.150;2023-05-18T11:18:13;17.80;99.90
17632;DHT22;8934;51.194;17.150;2023-05-18T11:21:03;18.60;99.90
17632;DHT22;8934;51.194;17.150;2023-05-18T11:24:13;19.40;99.00
17632;DHT22;8934;51.194;17.150;2023-05-18T11:27:08;20.00;98.40
17632;DHT22;8934;51.194;17.150;2023-05-18T11:29:58;20.30;98.30
17632;DHT22;8934;51.194;17.150;2023-05-18T11:33:07;20.20;98.90
17632;DHT22;8934;51.194;17.150;2023-05-18T11:36:05;19.90;95.80
17632;DHT22;8934;51.194;17.150;2023-05-18T11:39:02;19.50;99.90
17632;DHT22;8934;51.194;17.150;2023-05-18T11:41:58;19.40;99.50
17632;DHT22;8934;51.194;17.150;2023-05-18T11:44:51;19.70;99.90
17632;DHT22;8934;51.194;17.150;2023-05-18T11:47:39;20.70;96.90
17632;DHT22;8934;51.194;17.150;2023-05-18T11:50:29;20.60;96.90
17632;DHT22;8934;51.194;17.150;2023-05-18T11:53:19;20.40;94.30
17632;DHT22;8934;51.194;17.150;2023-05-18T11:56:10;19.70;92.00
17632;DHT22;8934;51.194;17.150;2023-05-18T11:59:10;19.40;92.30
17632;DHT22;8934;51.194;17.150;2023-05-18T12:02:00;19.70;97.30
17632;DHT22;8934;51.194;17.150;2023-05-18T12:04:51;19.90;91.30
17632;DHT22;8934;51.194;17.150;2023-05-18T12:07:40;20.00;97.60
17632;DHT22;8934;51.194;17.150;2023-05-18T12:10:29;20.70;95.30
17632;DHT22;8934;51.194;17.150;2023-05-18T12:13:17;21.00;94.40
17632;DHT22;8934;51.194;17.150;2023-05-18T12:16:06;21.10;96.20
17632;DHT22;8934;51.194;17.150;2023-05-18T12:18:56;21.40;96.00
17632;DHT22;8934;51.194;17.150;2023-05-18T12:21:44;21.30;92.10
17632;DHT22;8934;51.194;17.150;2023-05-18T12:24:32;21.30;96.90
17632;DHT22;8934;51.194;17.150;2023-05-18T12:27:21;21.80;93.30
17632;DHT22;8934;51.194;17.150;2023-05-18T12:30:15;21.80;93.10
17632;DHT22;8934;51.194;17.150;2023-05-18T12:33:03;21.70;91.90
17632;DHT22;8934;51.194;17.150;2023-05-18T12:35:53;21.30;93.70
17632;DHT22;8934;51.194;17.150;2023-05-18T12:38:41;21.30;90.20
17632;DHT22;8934;51.194;17.150;2023-05-18T12:41:29;21.50;95.70
17632;DHT22;8934;51.194;17.150;2023-05-18T12:44:18;21.50;93.30
17632;DHT22;8934;51.194;17.150;2023-05-18T12:47:05;21.80;95.00
17632;DHT22;8934;51.194;17.150;2023-05-18T12:49:53;21.70;89.40
17632;DHT22;8934;51.194;17.150;2023-05-18T12:52:41;21.20;90.10
17632;DHT22;8934;51.194;17.150;2023-05-18T12:55:29;21.30;94.30
17632;DHT22;8934;51.194;17.150;2023-05-18T12:58:19;21.50;89.60
17632;DHT22;8934;51.194;17.150;2023-05-18T13:01:09;21.60;91.00
17632;DHT22;8934;51.194;17.150;2023-05-18T13:03:57;21.70;85.20
17632;DHT22;8934;51.194;17.150;2023-05-18T13:06:45;21.30;89.90
17632;DHT22;8934;51.194;17.150;2023-05-18T13:09:34;21.00;94.60
17632;DHT22;8934;51.194;17.150;2023-05-18T13:12:34;21.30;93.80
17632;DHT22;8934;51.194;17.150;2023-05-18T13:15:22;21.70;91.80
17632;DHT22;8934;51.194;17.150;2023-05-18T13:18:12;21.90;90.20
17632;DHT22;8934;51.194;17.150;2023-05-18T13:20:59;21.70;90.90
17632;DHT22;8934;51.194;17.150;2023-05-18T13:23:47;21.50;91.40
17632;DHT22;8934;51.194;17.150;2023-05-18T13:26:35;21.60;92.40
17632;DHT22;8934;51.194;17.150;2023-05-18T13:29:22;22.10;94.60
17632;DHT22;8934;51.194;17.150;2023-05-18T13:32:09;22.40;93.00
17632;DHT22;8934;51.194;17.150;2023-05-18T13:34:58;22.60;89.40
17632;DHT22;8934;51.194;17.150;2023-05-18T13:37:47;22.60;90.90
17632;DHT22;8934;51.194;17.150;2023-05-18T13:40:36;22.80;91.80
17632;DHT22;8934;51.194;17.150;2023-05-18T13:43:24;23.00;91.20
17632;DHT22;8934;51.194;17.150;2023-05-18T13:46:12;23.30;88.40
17632;DHT22;8934;51.194;17.150;2023-05-18T13:49:00;23.40;88.00
17632;DHT22;8934;51.194;17.150;2023-05-18T13:51:49;23.60;91.30
17632;DHT22;8934;51.194;17.150;2023-05-18T13:54:36;24.00;89.20
17632;DHT22;8934;51.194;17.150;2023-05-18T13:57:24;24.10;85.30
17632;DHT22;8934;51.194;17.150;2023-05-18T14:00:13;24.00;86.30
17632;DHT22;8934;51.194;17.150;2023-05-18T14:03:03;24.10;82.90
17632;DHT22;8934;51.194;17.150;2023-05-18T14:05:51;23.70;84.30
17632;DHT22;8934;51.194;17.150;2023-05-18T14:08:40;23.20;89.20
17632;DHT22;8934;51.194;17.150;2023-05-18T14:11:28;23.20;87.90
17632;DHT22;8934;51.194;17.150;2023-05-18T14:14:19;23.40;83.40
17632;DHT22;8934;51.194;17.150;2023-05-18T14:17:07;23.80;87.40
17632;DHT22;8934;51.194;17.150;2023-05-18T14:19:56;24.00;87.90
17632;DHT22;8934;51.194;17.150;2023-05-18T14:22:44;23.90;85.80
17632;DHT22;8934;51.194;17.150;2023-05-18T14:25:33;22.80;82.00
17632;DHT22;8934;51.194;17.150;2023-05-18T14:28:22;22.10;86.10
17632;DHT22;8934;51.194;17.150;2023-05-18T14:31:10;22.20;90.80
17632;DHT22;8934;51.194;17.150;2023-05-18T14:33:58;22.60;88.40
17632;DHT22;8934;51.194;17.150;2023-05-18T14:36:45;23.30;88.70
17632;DHT22;8934;51.194;17.150;2023-05-18T14:39:33;23.90;88.10
17632;DHT22;8934;51.194;17.150;2023-05-18T14:42:22;23.60;88.50
17632;DHT22;8934;51.194;17.150;2023-05-18T14:45:10;23.20;81.40
17632;DHT22;8934;51.194;17.150;2023-05-18T14:47:58;23.00;83.90
17632;DHT22;8934;51.194;17.150;2023-05-18T14:50:46;22.90;84.20
17632;DHT22;8934;51.194;17.150;2023-05-18T14:53:34;22.90;81.70
17632;DHT22;8934;51.194;17.150;2023-05-18T14:56:21;22.90;86.80
17632;DHT22;8934;51.194;17.150;2023-05-18T14:59:10;23.20;82.80
17632;DHT22;8934;51.194;17.150;2023-05-18T15:01:58;22.90;85.90
17632;DHT22;8934;51.194;17.150;2023-05-18T15:04:46;23.20;86.40
17632;DHT22;8934;51.194;17.150;2023-05-18T15:07:33;23.10;80.90
17632;DHT22;8934;51.194;17.150;2023-05-18T15:10:21;22.50;84.90
17632;DHT22;8934;51.194;17.150;2023-05-18T15:13:09;22.50;87.60
17632;DHT22;8934;51.194;17.150;2023-05-18T15:15:59;22.50;88.70
17632;DHT22;8934;51.194;17.150;2023-05-18T15:18:47;22.80;89.80
17632;DHT22;8934;51.194;17.150;2023-05-18T15:21:35;22.60;85.90
17632;DHT22;8934;51.194;17.150;2023-05-18T15:24:22;22.10;84.00
17632;DHT22;8934;51.194;17.150;2023-05-18T15:27:11;21.40;87.80
17632;DHT22;8934;51.194;17.150;2023-05-18T15:29:59;20.90;90.00
17632;DHT22;8934;51.194;17.150;2023-05-18T15:32:48;20.70;89.90
17632;DHT22;8934;51.194;17.150;2023-05-18T15:35:35;21.10;90.10
17632;DHT22;8934;51.194;17.150;2023-05-18T15:38:24;21.70;90.50
17632;DHT22;8934;51.194;17.150;2023-05-18T15:41:14;22.50;91.60
17632;DHT22;8934;51.194;17.150;2023-05-18T15:44:02;23.50;88.60
17632;DHT22;8934;51.194;17.150;2023-05-18T15:46:49;24.20;87.90
17632;DHT22;8934;51.194;17.150;2023-05-18T15:49:39;24.80;85.80
17632;DHT22;8934;51.194;17.150;2023-05-18T15:52:26;24.90;84.70
17632;DHT22;8934;51.194;17.150;2023-05-18T15:55:15;24.40;86.10
17632;DHT22;8934;51.194;17.150;2023-05-18T15:58:02;23.70;84.40
17632;DHT22;8934;51.194;17.150;2023-05-18T16:00:50;23.90;85.00
17632;DHT22;8934;51.194;17.150;2023-05-18T16:03:37;24.20;84.50
17632;DHT22;8934;51.194;17.150;2023-05-18T16:06:27;24.70;85.20
17632;DHT22;8934;51.194;17.150;2023-05-18T16:09:15;25.20;85.60
17632;DHT22;8934;51.194;17.150;2023-05-18T16:12:02;25.90;81.80
17632;DHT22;8934;51.194;17.150;2023-05-18T16:14:50;26.00;78.90
17632;DHT22;8934;51.194;17.150;2023-05-18T16:17:37;26.10;82.60
17632;DHT22;8934;51.194;17.150;2023-05-18T16:20:25;25.90;80.80
17632;DHT22;8934;51.194;17.150;2023-05-18T16:23:14;25.70;81.20
17632;DHT22;8934;51.194;17.150;2023-05-18T16:26:02;25.50;80.50
17632;DHT22;8934;51.194;17.150;2023-05-18T16:28:51;25.10;83.60
17632;DHT22;8934;51.194;17.150;2023-05-18T16:31:38;24.30;81.50
17632;DHT22;8934;51.194;17.150;2023-05-18T16:34:26;23.80;86.20
17632;DHT22;8934;51.194;17.150;2023-05-18T16:37:14;23.30;85.40
17632;DHT22;8934;51.194;17.150;2023-05-18T16:40:04;22.50;83.90
17632;DHT22;8934;51.194;17.150;2023-05-18T16:42:52;22.00;88.50
17632;DHT22;8934;51.194;17.150;2023-05-18T16:45:39;21.90;85.70
17632;DHT22;8934;51.194;17.150;2023-05-18T16:48:27;21.30;86.70
17632;DHT22;8934;51.194;17.150;2023-05-18T16:51:15;20.80;89.20
17632;DHT22;8934;51.194;17.150;2023-05-18T16:54:03;20.60;89.80
17632;DHT22;8934;51.194;17.150;2023-05-18T16:56:53;20.90;91.10
17632;DHT22;8934;51.194;17.150;2023-05-18T16:59:41;21.20;90.10
17632;DHT22;8934;51.194;17.150;2023-05-18T17:02:28;21.50;90.20
17632;DHT22;8934;51.194;17.150;2023-05-18T17:05:16;21.70;89.30
17632;DHT22;8934;51.194;17.150;2023-05-18T17:08:06;21.70;88.40
17632;DHT22;8934;51.194;17.150;2023-05-18T17:10:55;21.70;87.30
17632;DHT22;8934;51.194;17.150;2023-05-18T17:13:44;21.60;88.20
17632;DHT22;8934;51.194;17.150;2023-05-18T17:16:32;21.60;89.00
17632;DHT22;8934;51.194;17.150;2023-05-18T17:19:25;21.70;90.10
17632;DHT22;8934;51.194;17.150;2023-05-18T17:22:13;21.90;89.80
17632;DHT22;8934;51.194;17.150;2023-05-18T17:25:00;21.70;90.00
17632;DHT22;8934;51.194;17.150;2023-05-18T17:27:48;21.50;90.10
17632;DHT22;8934;51.194;17.150;2023-05-18T17:30:38;21.50;89.70
17632;DHT22;8934;51.194;17.150;2023-05-18T17:33:25;21.30;91.20
17632;DHT22;8934;51.194;17.150;2023-05-18T17:36:13;21.10;91.00
17632;DHT22;8934;51.194;17.150;2023-05-18T17:39:02;21.00;91.00
17632;DHT22;8934;51.194;17.150;2023-05-18T17:41:50;21.00;91.30
17632;DHT22;8934;51.194;17.150;2023-05-18T17:44:39;20.90;90.80
17632;DHT22;8934;51.194;17.150;2023-05-18T17:47:28;20.70;90.80
17632;DHT22;8934;51.194;17.150;2023-05-18T17:50:16;20.10;91.70
17632;DHT22;8934;51.194;17.150;2023-05-18T17:53:04;19.60;92.50
17632;DHT22;8934;51.194;17.150;2023-05-18T17:55:52;18.90;93.20